This is the latest recevied weather packets stored in our database for station/object K3PPP. If no packets are shown the sender has not sent any weather packets the latest 10 day(s).
| Time | Temp. | Humidity | Pressure | Rain* | Wind** | Luminosity | Snow |
|---|---|---|---|---|---|---|---|
| 1777667406 | 11.67° C | 46% | 1010.1 hPa | 0 mm | - | 56 W/m² | - |
| 1777667103 | 11.67° C | 46% | 1010.2 hPa | 0 mm | - | 86 W/m² | - |
| 1777666799 | 11.67° C | 45% | 1010.4 hPa | 0 mm | - | 106 W/m² | - |
| 1777666496 | 12.22° C | 45% | 1010.2 hPa | 0 mm | - | 120 W/m² | - |
| 1777666193 | 12.22° C | 43% | 1010.2 hPa | 0 mm | - | 103 W/m² | - |
| 1777665890 | 12.22° C | 43% | 1010.2 hPa | 0 mm | - | 86 W/m² | - |
| 1777665587 | 12.78° C | 44% | 1010.3 hPa | 0 mm | - | 108 W/m² | - |
| 1777665284 | 12.78° C | 40% | 1010.3 hPa | 0 mm | - | 144 W/m² | - |
| 1777664979 | 13.33° C | 42% | 1010 hPa | 0 mm | - | 649 W/m² | - |
| 1777664676 | 13.89° C | 43% | 1010.6 hPa | 0 mm | - | 315 W/m² | - |
| 1777664372 | 13.89° C | 41% | 1010.1 hPa | 0 mm | - | 505 W/m² | - |
| 1777664070 | 12.78° C | 41% | 1010.3 hPa | 0 mm | - | 400 W/m² | - |
| 1777663768 | 12.22° C | 41% | 1010.4 hPa | 0 mm | - | 204 W/m² | - |
| 1777663464 | 12.22° C | 41% | 1010.4 hPa | 0 mm | - | 204 W/m² | - |
| 1777663162 | 12.22° C | 37% | 1010.7 hPa | 0 mm | - | 186 W/m² | - |
| 1777662859 | 12.22° C | 39% | 1010.4 hPa | 0 mm | - | 118 W/m² | - |
| 1777662556 | 12.78° C | 40% | 1010.2 hPa | 0 mm | - | 169 W/m² | - |
| 1777662252 | 12.22° C | 39% | 1010.6 hPa | 0 mm | - | 195 W/m² | - |
| 1777661952 | 12.78° C | 39% | 1010.4 hPa | 0 mm | - | 197 W/m² | - |
| 1777661648 | 12.22° C | 39% | 1010.6 hPa | 0 mm | - | 201 W/m² | - |
| 1777661344 | 12.22° C | 38% | 1010.7 hPa | 0 mm | - | 108 W/m² | - |
| 1777661041 | 12.78° C | 42% | 1010.7 hPa | 0 mm | - | 190 W/m² | - |
| 1777660741 | 12.22° C | 42% | 1010.7 hPa | 0 mm | - | 218 W/m² | - |
| 1777660439 | 12.22° C | 41% | 1010.6 hPa | 0 mm | - | 201 W/m² | - |
| 1777660135 | 12.78° C | 41% | 1010.6 hPa | 0 mm | - | 230 W/m² | - |
* Rain latest hour (hover to see other rain measurements)
** Current wind speed in m/s (hover to see current wind gust speed)